Terminal Aerodrome Forecast
Issued by NWS

Home | Current Version | Previous Version | Text Only | Print | Product List | Glossary On
Versions: 1 2 3 4 5 6 7 8 9 10 11 12 13 14 15 16 17 18 19 20 21 22 23 24 25 26 27 28 29 30 31 32
000
FTUS45 KGJT 231720
TAFMTJ
TAF
KMTJ 231720Z 2318/2418 34005KT P6SM SCT150
     FM232000 32008KT P6SM VCTS SCT100CB BKN200
      TEMPO 2320/2324 VRB20G30KT
     FM240000 17010G20KT P6SM VCTS SCT100CB BKN150
     FM240400 15008KT P6SM VCSH SCT100 BKN200=

USA.gov is the U.S. government's official web portal to all federal, state and local government web resources and services.